< Typhoon 196216 1962 Season Typhoon 196218 >
Typhoon 196217 (AMY)
General InformationTrack Information on Google Maps || Disaster Info.ResourceGoogle EarthGE AnimationAtom FeedGeoJSON
Detalied Best Track (Time Zone = UTC)
Year Month Day Hour Lat. Long. Pressure (hPa) Wind (kt) Class Image Chart
1962 8 28 18 14.6 150.0 1002 0 2 -- Chart
1962 8 29 00 14.8 149.4 1004 0 2 -- Chart
1962 8 29 06 15.1 148.7 1000 0 2 -- Chart
1962 8 29 12 15.5 148.3 1000 0 2 -- Chart
1962 8 29 18 15.9 147.8 996 0 2 -- Chart
1962 8 30 00 16.4 147.3 992 0 9 -- Chart
1962 8 30 06 17.4 146.1 990 0 9 -- Chart
1962 8 30 12 18.5 144.9 985 0 9 -- Chart
1962 8 30 18 19.3 143.8 980 0 9 -- Chart
1962 8 31 00 19.6 141.8 980 0 9 -- Chart
1962 8 31 06 19.7 139.5 980 0 9 -- Chart
1962 8 31 12 19.7 137.7 980 0 9 -- Chart
1962 8 31 18 19.6 136.4 970 0 9 -- Chart
1962 9 1 00 19.4 135.0 960 0 9 -- Chart
1962 9 1 06 19.3 133.6 940 0 9 -- Chart
1962 9 1 12 19.1 132.3 940 0 9 -- Chart
1962 9 1 18 18.8 131.2 940 0 9 -- Chart
1962 9 2 00 18.7 130.2 940 0 9 -- Chart
1962 9 2 06 18.7 129.6 940 0 9 -- Chart
1962 9 2 12 18.7 129.0 940 0 9 -- Chart
1962 9 2 18 18.8 128.6 940 0 9 -- Chart
1962 9 3 00 19.0 128.2 940 0 9 -- Chart
1962 9 3 06 19.1 127.7 940 0 9 -- Chart
1962 9 3 12 19.8 127.2 940 0 9 -- Chart
1962 9 3 18 20.2 126.1 940 0 9 -- Chart
1962 9 4 00 20.8 125.3 940 0 9 -- Chart
1962 9 4 06 21.2 124.7 940 0 9 -- Chart
1962 9 4 12 21.9 123.9 940 0 9 -- Chart
1962 9 4 18 22.7 123.2 940 0 9 -- Chart
1962 9 5 00 23.9 122.0 940 0 9 -- Chart
1962 9 5 06 24.5 121.0 960 0 9 -- Chart
1962 9 5 12 25.1 120.4 965 0 9 -- Chart
1962 9 5 18 25.8 119.6 970 0 9 -- Chart
1962 9 6 00 27.0 118.9 984 0 9 -- Chart
1962 9 6 06 28.0 119.0 990 0 9 -- Chart
1962 9 6 12 29.5 120.1 994 0 9 -- Chart
1962 9 6 18 31.1 120.3 998 0 9 -- Chart
1962 9 7 00 33.0 121.0 998 0 9 -- Chart
1962 9 7 06 34.4 122.6 1000 0 6 -- Chart
1962 9 7 12 35.5 125.5 1002 0 6 -- Chart
1962 9 7 18 39.6 129.7 996 0 6 -- Chart
1962 9 8 00 41.0 133.0 992 0 6 -- Chart
1962 9 8 06 42.9 135.8 990 0 6 -- Chart
1962 9 8 12 45.1 138.8 988 0 6 -- Chart
1962 9 8 18 46.8 140.4 984 0 6 -- Chart
1962 9 9 00 48.0 141.0 986 0 6 -- Chart
1962 9 9 06 49.0 142.0 988 0 6 -- Chart
1962 9 9 12 50.0 143.0 990 0 6 -- Chart
1962 9 9 18 50.6 143.6 990 0 6 -- Chart
1962 9 10 00 51.0 144.0 995 0 6 -- Chart
1962 9 10 06 51.4 144.5 996 0 6 -- Chart
1962 9 10 12 51.6 145.0 996 0 6 -- Chart
Japan Meteorological Agency Best Track Data | Correction Date : 1989-06-01
< Typhoon 196216 1962 Season Typhoon 196218 >

Help